createdAt,value
2022-08-26T00:00:06.776Z,20.17
2022-08-26T00:05:13.416Z,20.16
2022-08-26T00:10:14.149Z,20.17
2022-08-26T00:15:19.022Z,20.21
2022-08-26T00:20:25.277Z,20.17
2022-08-26T00:25:27.676Z,20.00
2022-08-26T00:30:31.256Z,19.89
2022-08-26T00:35:33.673Z,19.89
2022-08-26T00:40:36.619Z,19.92
2022-08-26T00:45:45.508Z,19.94
2022-08-26T00:50:51.665Z,19.87
2022-08-26T00:55:58.175Z,19.83
2022-08-26T01:01:00.271Z,19.66
2022-08-26T01:06:03.753Z,19.60
2022-08-26T01:11:05.881Z,19.51
2022-08-26T01:16:13.775Z,19.56
2022-08-26T01:21:26.887Z,19.54
2022-08-26T01:26:31.902Z,19.52
2022-08-26T01:31:39.676Z,19.42
2022-08-26T01:36:41.464Z,19.37
2022-08-26T01:41:45.421Z,19.32
2022-08-26T01:46:49.956Z,19.32
2022-08-26T01:51:54.628Z,19.31
2022-08-26T01:56:56.953Z,19.25
2022-08-26T02:01:58.385Z,19.24
2022-08-26T02:07:00.172Z,19.32
2022-08-26T02:12:02.876Z,19.17
2022-08-26T02:17:07.199Z,19.14
2022-08-26T02:22:14.998Z,19.15
2022-08-26T02:27:20.392Z,19.24
2022-08-26T02:32:21.630Z,19.33
2022-08-26T02:37:24.066Z,19.37
2022-08-26T02:42:27.448Z,19.29
2022-08-26T02:47:29.091Z,19.31
2022-08-26T02:52:30.013Z,19.22
2022-08-26T02:57:32.612Z,19.09
2022-08-26T03:02:33.361Z,19.14
2022-08-26T03:07:34.552Z,19.18
2022-08-26T03:12:37.106Z,19.20
2022-08-26T03:17:38.057Z,19.02
2022-08-26T03:22:40.863Z,18.91
2022-08-26T03:27:43.654Z,18.91
2022-08-26T03:32:44.528Z,19.06
2022-08-26T03:37:45.217Z,18.89
2022-08-26T03:42:47.739Z,18.79
2022-08-26T03:47:49.326Z,18.71
2022-08-26T03:52:51.619Z,18.73
2022-08-26T03:57:54.167Z,18.68
2022-08-26T04:02:56.169Z,18.63
2022-08-26T04:07:56.973Z,18.64
2022-08-26T04:13:00.522Z,18.70
2022-08-26T04:18:01.197Z,18.64
2022-08-26T04:23:01.976Z,18.67
2022-08-26T04:28:04.494Z,18.65
2022-08-26T04:33:12.742Z,18.66
2022-08-26T04:38:14.264Z,18.73
2022-08-26T04:43:16.398Z,18.84
2022-08-26T04:48:17.082Z,18.85
2022-08-26T04:53:19.061Z,18.93
2022-08-26T04:58:23.533Z,19.01
2022-08-26T05:03:25.500Z,18.97
2022-08-26T05:08:27.076Z,19.00
2022-08-26T05:13:29.591Z,19.00
2022-08-26T05:18:30.379Z,19.07
2022-08-26T05:23:32.647Z,19.07
2022-08-26T05:28:34.924Z,19.06
2022-08-26T05:33:36.008Z,19.05
2022-08-26T05:38:36.966Z,19.14
2022-08-26T05:43:38.976Z,19.22
2022-08-26T05:48:44.385Z,19.31
2022-08-26T05:53:54.369Z,19.34
2022-08-26T05:58:58.393Z,19.47
2022-08-26T06:04:02.486Z,19.40
2022-08-26T06:09:05.090Z,19.46
2022-08-26T06:14:08.760Z,19.66
2022-08-26T06:19:11.930Z,19.86
2022-08-26T06:24:32.314Z,19.87
2022-08-26T06:29:36.372Z,20.05
2022-08-26T06:34:38.526Z,20.28
2022-08-26T06:39:41.106Z,20.38
2022-08-26T06:44:44.702Z,20.46
2022-08-26T06:49:45.577Z,20.59
2022-08-26T06:54:46.260Z,20.60
2022-08-26T06:59:48.888Z,20.84
2022-08-26T07:04:51.962Z,21.08
2022-08-26T07:09:57.472Z,21.25
2022-08-26T07:14:59.726Z,21.23
2022-08-26T07:20:01.315Z,21.23
2022-08-26T07:25:02.198Z,21.60
2022-08-26T07:30:07.743Z,21.94
2022-08-26T07:35:09.241Z,22.09
2022-08-26T07:40:10.699Z,22.22
2022-08-26T07:45:14.198Z,22.55
2022-08-26T07:50:15.002Z,22.53
2022-08-26T07:55:16.673Z,22.70
2022-08-26T08:00:18.881Z,22.90
2022-08-26T08:05:22.846Z,23.06
2022-08-26T08:10:34.577Z,23.19
2022-08-26T08:15:37.670Z,23.34
2022-08-26T08:20:42.283Z,23.45
2022-08-26T08:25:45.644Z,23.68
2022-08-26T08:30:47.867Z,23.97
2022-08-26T08:35:49.247Z,24.20
2022-08-26T08:40:51.360Z,24.45
2022-08-26T08:45:59.765Z,24.60
2022-08-26T08:51:09.112Z,24.73
2022-08-26T08:56:20.613Z,24.96
2022-08-26T09:01:37.130Z,25.36
2022-08-26T09:06:41.060Z,25.73
2022-08-26T09:11:44.386Z,26.15
2022-08-26T09:16:52.649Z,26.09
2022-08-26T09:21:56.903Z,26.18
2022-08-26T09:26:59.369Z,25.70
2022-08-26T09:32:21.251Z,25.41
2022-08-26T09:37:38.357Z,25.32
2022-08-26T09:42:40.049Z,25.38
2022-08-26T09:47:55.017Z,25.50
2022-08-26T09:53:12.830Z,25.53
2022-08-26T09:58:15.914Z,25.47
2022-08-26T10:03:27.203Z,25.38
2022-08-26T10:08:32.489Z,25.29
2022-08-26T10:13:37.205Z,25.06
2022-08-26T10:18:46.187Z,24.80
2022-08-26T10:23:50.871Z,24.65
2022-08-26T10:28:57.672Z,24.50
2022-08-26T10:34:00.791Z,24.61
2022-08-26T10:39:05.844Z,24.91
2022-08-26T10:44:12.734Z,25.23
2022-08-26T10:49:17.847Z,25.58
2022-08-26T10:54:25.229Z,25.73
2022-08-26T10:59:36.951Z,26.34
2022-08-26T11:04:48.510Z,26.71
2022-08-26T11:09:49.737Z,27.18
2022-08-26T11:14:58.776Z,27.59
2022-08-26T11:20:09.257Z,28.38
2022-08-26T11:25:15.423Z,28.58
2022-08-26T11:30:45.123Z,28.68
2022-08-26T11:35:50.102Z,28.66
2022-08-26T11:41:08.927Z,28.88
2022-08-26T11:46:12.128Z,29.39
2022-08-26T11:51:23.333Z,29.84
2022-08-26T11:56:31.606Z,30.13
2022-08-26T12:01:35.778Z,30.04
2022-08-26T12:06:45.227Z,30.07
2022-08-26T12:11:46.651Z,29.53
2022-08-26T12:16:48.018Z,29.57
2022-08-26T12:21:50.713Z,29.92
2022-08-26T12:27:11.969Z,29.95
2022-08-26T12:32:17.474Z,30.31
2022-08-26T12:37:19.915Z,30.49
2022-08-26T12:42:41.024Z,30.02
2022-08-26T12:47:44.659Z,30.44
2022-08-26T12:52:56.398Z,30.01
2022-08-26T12:58:21.209Z,30.60
2022-08-26T13:03:46.219Z,31.20
2022-08-26T13:08:49.632Z,31.29
2022-08-26T13:13:53.519Z,31.43
2022-08-26T13:18:56.132Z,31.65
2022-08-26T13:24:02.400Z,31.35
2022-08-26T13:29:05.350Z,31.42
2022-08-26T13:34:10.396Z,30.75
2022-08-26T13:39:13.472Z,31.17
2022-08-26T13:44:14.581Z,30.78
2022-08-26T13:49:15.664Z,30.10
2022-08-26T13:54:17.829Z,29.39
2022-08-26T13:59:19.401Z,29.10
2022-08-26T14:04:27.370Z,28.99
2022-08-26T14:09:29.881Z,28.80
2022-08-26T14:14:30.627Z,28.46
2022-08-26T14:19:32.914Z,27.64
2022-08-26T14:24:34.947Z,27.31
2022-08-26T14:29:35.627Z,27.37
2022-08-26T14:34:36.502Z,27.72
2022-08-26T14:39:38.536Z,27.97
2022-08-26T14:44:39.950Z,28.04
2022-08-26T14:49:40.639Z,28.21
2022-08-26T14:54:42.814Z,28.33
2022-08-26T14:59:49.852Z,29.07
2022-08-26T15:04:51.409Z,29.20
2022-08-26T15:09:53.477Z,29.57
2022-08-26T15:14:54.233Z,29.77
2022-08-26T15:19:55.229Z,30.16
2022-08-26T15:24:57.512Z,30.07
2022-08-26T15:29:58.262Z,29.54
2022-08-26T15:34:59.079Z,29.30
2022-08-26T15:40:01.202Z,29.16
2022-08-26T15:45:01.927Z,29.02
2022-08-26T15:50:02.640Z,29.36
2022-08-26T15:55:05.387Z,29.10
2022-08-26T16:00:07.692Z,28.29
2022-08-26T16:05:13.554Z,27.78
2022-08-26T16:10:15.585Z,27.37
2022-08-26T16:15:16.803Z,26.87
2022-08-26T16:20:17.692Z,26.54
2022-08-26T16:25:20.187Z,26.36
2022-08-26T16:30:21.889Z,26.10
2022-08-26T16:35:23.244Z,25.81
2022-08-26T16:40:25.840Z,25.70
2022-08-26T16:45:27.583Z,25.63
2022-08-26T16:50:28.372Z,25.93
2022-08-26T16:55:30.553Z,26.00
2022-08-26T17:00:34.608Z,25.80
2022-08-26T17:05:36.336Z,25.09
2022-08-26T17:10:38.565Z,25.69
2022-08-26T17:15:39.558Z,25.49
2022-08-26T17:20:40.252Z,25.69
2022-08-26T17:25:42.543Z,25.74
2022-08-26T17:30:44.379Z,25.62
2022-08-26T17:35:45.085Z,25.07
2022-08-26T17:40:47.223Z,24.68
2022-08-26T17:45:48.248Z,24.34
2022-08-26T17:50:49.480Z,24.02
2022-08-26T17:55:52.624Z,23.97
2022-08-26T18:00:54.662Z,23.81
2022-08-26T18:05:55.416Z,23.65
2022-08-26T18:10:57.507Z,23.55
2022-08-26T18:15:58.318Z,23.52
2022-08-26T18:21:01.844Z,23.42
2022-08-26T18:26:04.136Z,23.26
2022-08-26T18:31:07.741Z,23.20
2022-08-26T18:36:09.061Z,23.24
2022-08-26T18:41:11.230Z,23.15
2022-08-26T18:46:12.434Z,23.08
2022-08-26T18:51:17.274Z,23.10
2022-08-26T18:56:19.903Z,23.17
2022-08-26T19:01:25.450Z,23.11
2022-08-26T19:06:32.810Z,22.98
2022-08-26T19:11:37.508Z,22.93
2022-08-26T19:16:45.996Z,22.88
2022-08-26T19:21:47.756Z,22.86
2022-08-26T19:26:55.203Z,22.81
2022-08-26T19:31:59.016Z,22.78
2022-08-26T19:36:59.752Z,22.78
2022-08-26T19:42:01.842Z,22.77
2022-08-26T19:47:03.562Z,22.67
2022-08-26T19:52:05.642Z,22.59
2022-08-26T19:57:08.017Z,22.51
2022-08-26T20:02:11.098Z,22.28
2022-08-26T20:07:15.351Z,22.39
2022-08-26T20:12:20.474Z,22.31
2022-08-26T20:17:21.212Z,22.31
2022-08-26T20:22:22.236Z,22.28
2022-08-26T20:27:37.873Z,22.32
2022-08-26T20:32:39.954Z,22.34
2022-08-26T20:37:41.709Z,22.39
2022-08-26T20:42:43.741Z,22.30
2022-08-26T20:47:44.617Z,22.23
2022-08-26T20:52:46.337Z,22.04
2022-08-26T20:57:49.458Z,21.80
2022-08-26T21:02:50.488Z,21.86
2022-08-26T21:07:51.467Z,21.93
2022-08-26T21:12:53.494Z,21.87
2022-08-26T21:17:54.283Z,21.81
2022-08-26T21:22:54.970Z,21.50
2022-08-26T21:27:57.297Z,21.42
2022-08-26T21:32:58.004Z,21.23
2022-08-26T21:37:58.897Z,21.13
2022-08-26T21:43:00.888Z,20.97
2022-08-26T21:48:01.629Z,20.97
2022-08-26T21:53:02.336Z,20.91
2022-08-26T21:58:04.370Z,20.84
2022-08-26T22:03:05.122Z,20.89
2022-08-26T22:08:05.923Z,20.94
2022-08-26T22:13:08.525Z,20.87
2022-08-26T22:18:09.722Z,20.88
2022-08-26T22:23:11.135Z,20.85
2022-08-26T22:28:13.279Z,20.82
2022-08-26T22:33:14.473Z,20.73
2022-08-26T22:38:15.490Z,20.58
2022-08-26T22:43:18.300Z,20.63
2022-08-26T22:48:21.633Z,20.50
2022-08-26T22:53:22.784Z,20.55
2022-08-26T22:58:30.866Z,20.39
2022-08-26T23:03:31.947Z,20.51
2022-08-26T23:08:32.669Z,20.56
2022-08-26T23:13:34.663Z,20.58
2022-08-26T23:18:35.789Z,20.46
2022-08-26T23:23:36.488Z,20.46
2022-08-26T23:28:39.621Z,20.42
2022-08-26T23:33:57.864Z,20.36
2022-08-26T23:38:59.054Z,20.20
2022-08-26T23:44:03.540Z,20.14
2022-08-26T23:49:05.459Z,20.07
2022-08-26T23:54:07.176Z,20.06
2022-08-26T23:59:10.284Z,20.02
